Time;durP1;ratioP1;P1;durP2;ratioP2;P2;SDS_P1;SDS_P2;PMS_P1;PMS_P2;Temp;Humidity;BMP_temperature;BMP_pressure;BME280_temperature;BME280_humidity;BME280_pressure;Samples;Min_cycle;Max_cycle;Signal;HPM_P1;HPM_P2
2023/01/02 00:00:23;;;;;;;26.38;10.80;;;10.60;99.90;;;;;;5004811;28;20728;-69
2023/01/02 00:02:49;;;;;;;23.98;10.45;;;10.50;99.90;;;;;;4984587;28;20049;-69
2023/01/02 00:05:14;;;;;;;20.60;10.10;;;10.50;99.90;;;;;;4984036;28;20033;-69
2023/01/02 00:07:40;;;;;;;24.23;10.32;;;10.50;99.90;;;;;;4988436;28;20496;-69
2023/01/02 00:10:06;;;;;;;24.77;11.45;;;10.60;99.90;;;;;;4986745;28;20542;-69
2023/01/02 00:12:31;;;;;;;23.73;10.88;;;10.50;99.90;;;;;;4987257;28;20172;-69
2023/01/02 00:14:57;;;;;;;31.23;11.65;;;10.60;99.90;;;;;;4985580;28;20071;-69
2023/01/02 00:17:23;;;;;;;24.25;10.90;;;10.60;99.90;;;;;;4988123;28;20048;-69
2023/01/02 00:19:48;;;;;;;30.58;12.25;;;10.50;99.90;;;;;;4983489;28;20073;-67
2023/01/02 00:22:14;;;;;;;34.95;14.90;;;10.50;99.90;;;;;;4984509;28;20401;-70
2023/01/02 00:24:39;;;;;;;30.52;11.60;;;10.60;99.90;;;;;;4987143;28;20665;-68
2023/01/02 00:27:05;;;;;;;30.40;13.00;;;10.60;99.90;;;;;;4986990;28;20045;-70
2023/01/02 00:29:31;;;;;;;28.95;12.68;;;10.60;99.90;;;;;;5001626;28;20092;-68
2023/01/02 00:31:56;;;;;;;34.60;13.38;;;10.60;99.90;;;;;;5004018;28;20049;-70
2023/01/02 00:34:22;;;;;;;41.78;13.75;;;10.60;99.90;;;;;;4984713;28;20040;-69
2023/01/02 00:36:47;;;;;;;36.80;13.60;;;10.60;99.90;;;;;;4986304;28;20516;-70
2023/01/02 00:39:13;;;;;;;33.50;13.48;;;10.60;99.90;;;;;;4968604;28;20385;-69
2023/01/02 00:41:38;;;;;;;32.85;13.43;;;10.70;99.90;;;;;;4998122;28;20096;-68
2023/01/02 00:44:04;;;;;;;31.10;14.52;;;10.70;99.90;;;;;;4985510;28;20034;-70
2023/01/02 00:46:30;;;;;;;30.13;13.55;;;10.70;99.90;;;;;;4982882;28;20496;-69
2023/01/02 00:48:55;;;;;;;34.13;13.80;;;10.70;99.90;;;;;;4987293;28;20412;-69
2023/01/02 00:51:21;;;;;;;36.92;14.55;;;10.70;99.90;;;;;;4986774;28;20034;-70
2023/01/02 00:53:46;;;;;;;34.33;13.80;;;10.60;99.90;;;;;;4986899;28;20076;-69
2023/01/02 00:56:12;;;;;;;35.92;14.30;;;10.70;99.90;;;;;;4986036;28;20042;-70
2023/01/02 00:58:37;;;;;;;41.30;14.40;;;10.60;99.90;;;;;;4993485;28;20605;-68
2023/01/02 01:01:03;;;;;;;36.38;15.40;;;10.70;99.90;;;;;;4984920;28;20052;-71
2023/01/02 01:03:29;;;;;;;33.88;13.90;;;10.70;99.90;;;;;;4986883;28;20530;-67
2023/01/02 01:05:55;;;;;;;37.63;15.00;;;10.70;99.90;;;;;;4986576;28;20113;-70
2023/01/02 01:08:20;;;;;;;32.10;14.57;;;10.70;99.90;;;;;;4984178;28;20463;-68
2023/01/02 01:10:46;;;;;;;28.92;13.60;;;10.70;99.90;;;;;;5000531;28;20069;-70
2023/01/02 01:13:12;;;;;;;34.10;13.75;;;10.70;99.90;;;;;;4984304;28;20037;-69
2023/01/02 01:15:37;;;;;;;40.90;14.65;;;10.70;99.90;;;;;;4985340;28;20049;-69
2023/01/02 01:18:03;;;;;;;33.60;14.25;;;10.70;99.90;;;;;;4982271;28;20038;-70
2023/01/02 01:20:29;;;;;;;34.53;17.23;;;10.80;99.90;;;;;;4984658;28;20053;-69
2023/01/02 01:22:54;;;;;;;38.42;15.05;;;10.80;99.90;;;;;;4986152;28;20045;-69
2023/01/02 01:25:20;;;;;;;38.70;15.05;;;10.80;99.90;;;;;;4986904;28;20041;-69
2023/01/02 01:27:45;;;;;;;43.90;15.27;;;10.90;99.90;;;;;;4971753;28;20095;-69
2023/01/02 01:30:11;;;;;;;41.70;14.90;;;10.90;99.90;;;;;;4984666;28;20034;-69
2023/01/02 01:32:37;;;;;;;34.03;14.52;;;10.90;99.90;;;;;;4982386;28;20053;-69
2023/01/02 01:35:03;;;;;;;39.88;15.13;;;10.80;99.90;;;;;;4986074;28;20038;-69
2023/01/02 01:37:28;;;;;;;34.72;14.38;;;10.80;99.90;;;;;;4983369;28;20496;-68
2023/01/02 01:39:54;;;;;;;40.25;15.73;;;10.90;99.90;;;;;;4986759;28;20046;-69
2023/01/02 01:42:19;;;;;;;30.40;14.10;;;10.90;99.90;;;;;;4986267;28;20137;-68
2023/01/02 01:44:45;;;;;;;42.20;16.25;;;10.80;99.90;;;;;;5005583;28;20042;-69
2023/01/02 01:47:37;;;;;;;40.08;15.07;;;10.90;99.90;;;;;;4986716;28;20042;-71
2023/01/02 01:50:08;;;;;;;39.30;14.95;;;11.00;99.90;;;;;;4990228;28;20497;-70
2023/01/02 01:52:39;;;;;;;37.15;14.70;;;11.00;99.90;;;;;;4992185;28;20531;-68
2023/01/02 01:55:22;;;;;;;39.17;14.88;;;10.90;99.90;;;;;;4989881;28;20061;-69
2023/01/02 01:57:50;;;;;;;40.58;14.80;;;10.90;99.90;;;;;;5004582;28;20034;-69
2023/01/02 02:00:16;;;;;;;45.03;14.57;;;10.90;99.90;;;;;;4987398;28;20042;-69
2023/01/02 02:02:46;;;;;;;31.80;13.48;;;11.00;99.90;;;;;;4984909;28;20116;-69
2023/01/02 02:05:17;;;;;;;35.50;13.73;;;11.00;99.90;;;;;;4988052;28;20099;-69
2023/01/02 02:07:58;;;;;;;28.52;13.43;;;11.00;99.90;;;;;;4987720;28;20042;-69
2023/01/02 02:10:23;;;;;;;36.72;13.73;;;11.00;99.90;;;;;;4987737;28;20100;-68
2023/01/02 02:12:49;;;;;;;34.13;13.82;;;11.00;99.90;;;;;;5010185;28;20054;-68
2023/01/02 02:15:20;;;;;;;35.83;13.98;;;10.90;99.90;;;;;;4989885;28;20176;-69
2023/01/02 02:17:52;;;;;;;32.90;13.57;;;10.90;99.90;;;;;;4987788;28;20042;-68
2023/01/02 02:20:33;;;;;;;33.10;14.13;;;11.00;99.90;;;;;;4985257;28;20046;-67
2023/01/02 02:23:20;;;;;;;32.28;13.30;;;11.00;99.90;;;;;;4984500;28;20053;-68
2023/01/02 02:26:13;;;;;;;34.28;13.30;;;11.00;99.90;;;;;;4985894;28;20038;-69
2023/01/02 02:29:14;;;;;;;41.08;13.32;;;11.00;99.90;;;;;;4985179;28;20389;-68
2023/01/02 02:32:06;;;;;;;35.38;13.50;;;11.00;99.90;;;;;;4990093;28;20484;-68
2023/01/02 02:34:55;;;;;;;33.23;13.57;;;11.00;99.90;;;;;;4989435;28;20069;-68
2023/01/02 02:37:49;;;;;;;37.13;13.05;;;11.00;99.90;;;;;;4990379;28;20038;-68
2023/01/02 02:41:02;;;;;;;35.17;12.35;;;11.00;99.90;;;;;;4987038;28;20052;-69
2023/01/02 02:43:43;;;;;;;35.72;13.25;;;11.00;99.90;;;;;;4999934;28;20119;-69
2023/01/02 02:46:25;;;;;;;41.10;12.23;;;11.00;99.90;;;;;;4989072;28;20312;-68
2023/01/02 02:48:57;;;;;;;32.47;13.25;;;11.00;99.90;;;;;;4991060;28;20092;-70
2023/01/02 02:52:01;;;;;;;39.28;13.18;;;11.10;99.90;;;;;;5004020;28;20116;-71
2023/01/02 02:54:41;;;;;;;32.55;12.43;;;11.00;99.90;;;;;;5004695;28;20405;-71
2023/01/02 02:57:08;;;;;;;33.03;12.88;;;11.10;99.90;;;;;;4988806;28;20065;-70
2023/01/02 02:59:36;;;;;;;33.25;12.30;;;11.00;99.90;;;;;;5002064;28;20437;-69
2023/01/02 03:02:03;;;;;;;35.85;13.60;;;11.10;99.90;;;;;;4990884;28;20041;-70
2023/01/02 03:04:29;;;;;;;33.55;12.70;;;11.10;99.90;;;;;;4984398;28;20404;-71
2023/01/02 03:07:24;;;;;;;32.25;13.18;;;11.10;99.90;;;;;;4984380;28;20038;-70
2023/01/02 03:09:49;;;;;;;36.38;12.95;;;11.10;99.90;;;;;;4979096;28;20050;-71
2023/01/02 03:12:50;;;;;;;36.22;13.52;;;11.10;99.90;;;;;;4986992;28;20760;-70
2023/01/02 03:15:40;;;;;;;32.03;12.38;;;11.10;99.90;;;;;;4988591;28;20696;-67
2023/01/02 03:18:24;;;;;;;34.72;13.45;;;11.10;99.90;;;;;;5002136;28;20050;-68
2023/01/02 03:21:07;;;;;;;38.80;13.38;;;11.10;99.90;;;;;;4985257;28;20607;-70
2023/01/02 03:23:44;;;;;;;33.30;12.63;;;11.20;99.90;;;;;;4985546;28;20038;-68
2023/01/02 03:26:13;;;;;;;32.92;12.65;;;11.20;99.90;;;;;;5001518;28;20353;-69
2023/01/02 03:28:41;;;;;;;36.15;13.23;;;11.10;99.90;;;;;;4984999;28;20049;-68
2023/01/02 03:31:11;;;;;;;35.40;13.93;;;11.20;99.90;;;;;;4982117;28;20088;-69
2023/01/02 03:33:43;;;;;;;42.00;13.70;;;11.20;99.90;;;;;;4983726;28;20088;-70
2023/01/02 03:36:14;;;;;;;34.63;13.38;;;11.20;99.90;;;;;;4984263;28;20551;-69
2023/01/02 03:38:50;;;;;;;36.65;13.05;;;11.10;99.90;;;;;;4983651;28;20103;-69
2023/01/02 03:41:22;;;;;;;30.58;12.10;;;11.20;99.90;;;;;;4982855;28;20053;-69
2023/01/02 03:43:51;;;;;;;35.85;13.18;;;11.20;99.90;;;;;;5000277;28;20129;-69
2023/01/02 03:46:37;;;;;;;34.90;12.98;;;11.20;99.90;;;;;;4987152;28;20117;-69
2023/01/02 03:49:11;;;;;;;35.53;13.52;;;11.10;99.90;;;;;;4984698;28;20492;-69
2023/01/02 03:51:36;;;;;;;34.50;13.05;;;11.10;99.90;;;;;;4983277;28;20072;-69
2023/01/02 03:54:04;;;;;;;41.03;13.43;;;11.20;99.90;;;;;;4980964;28;20129;-69
2023/01/02 03:56:42;;;;;;;37.10;13.23;;;11.10;99.90;;;;;;4981971;28;20050;-68
2023/01/02 03:59:14;;;;;;;32.95;12.45;;;11.10;99.90;;;;;;5000356;28;20040;-69
2023/01/02 04:02:03;;;;;;;26.45;11.65;;;11.20;99.90;;;;;;4999453;28;20125;-68
2023/01/02 04:04:45;;;;;;;37.00;12.68;;;11.20;99.90;;;;;;4981770;28;20042;-68
2023/01/02 04:07:19;;;;;;;33.72;12.57;;;11.20;99.90;;;;;;4981192;28;20045;-67
2023/01/02 04:09:47;;;;;;;29.67;12.25;;;11.20;99.90;;;;;;4982214;28;20045;-69
2023/01/02 04:12:19;;;;;;;40.33;13.55;;;11.20;99.90;;;;;;4981525;28;20052;-68
2023/01/02 04:14:51;;;;;;;28.80;12.32;;;11.20;99.90;;;;;;5000778;28;20038;-70
2023/01/02 04:17:20;;;;;;;32.75;13.02;;;11.10;99.90;;;;;;4997674;28;20317;-67
2023/01/02 04:19:50;;;;;;;31.30;12.35;;;11.20;99.90;;;;;;4982611;28;20038;-69
2023/01/02 04:22:35;;;;;;;30.80;12.52;;;11.20;99.90;;;;;;5000754;28;20050;-68
2023/01/02 04:25:13;;;;;;;35.40;12.75;;;11.30;99.90;;;;;;4980880;28;20042;-68
2023/01/02 04:27:57;;;;;;;30.17;12.43;;;11.20;99.90;;;;;;4982562;28;20094;-68
2023/01/02 04:30:25;;;;;;;33.85;13.38;;;11.30;99.90;;;;;;4981816;28;20198;-69
2023/01/02 04:32:51;;;;;;;32.47;12.95;;;11.30;99.90;;;;;;4998510;28;20554;-70
2023/01/02 04:35:23;;;;;;;30.30;11.95;;;11.30;99.90;;;;;;4982824;28;20046;-70
2023/01/02 04:37:48;;;;;;;35.95;12.93;;;11.20;99.90;;;;;;4984136;28;20045;-71
2023/01/02 04:40:16;;;;;;;36.45;12.18;;;11.40;99.90;;;;;;4984979;28;20480;-68
2023/01/02 04:42:42;;;;;;;31.30;12.20;;;11.30;99.90;;;;;;4977839;28;20443;-71
2023/01/02 04:45:08;;;;;;;28.65;11.20;;;11.30;99.90;;;;;;4980840;28;20042;-68
2023/01/02 04:47:34;;;;;;;31.63;11.85;;;11.30;99.90;;;;;;4991983;28;20484;-68
2023/01/02 04:49:59;;;;;;;32.03;11.88;;;11.30;99.90;;;;;;4983707;28;20065;-68
2023/01/02 04:52:25;;;;;;;26.05;12.20;;;11.40;99.90;;;;;;4980568;28;20570;-69
2023/01/02 04:54:50;;;;;;;28.30;12.35;;;11.40;99.90;;;;;;4983815;28;20072;-69
2023/01/02 04:57:16;;;;;;;32.72;11.73;;;11.40;99.90;;;;;;4978887;28;20052;-68
2023/01/02 04:59:41;;;;;;;26.95;11.70;;;11.40;99.90;;;;;;4982229;28;20049;-70
2023/01/02 05:02:07;;;;;;;32.85;12.10;;;11.40;99.90;;;;;;4997717;28;20042;-69
2023/01/02 05:04:33;;;;;;;28.67;11.88;;;11.50;99.90;;;;;;4982073;28;20045;-69
2023/01/02 05:06:58;;;;;;;28.20;11.90;;;11.40;99.90;;;;;;4979984;28;20631;-69
2023/01/02 05:09:24;;;;;;;34.05;12.30;;;11.50;99.90;;;;;;4982190;28;20037;-69
2023/01/02 05:11:49;;;;;;;33.13;12.48;;;11.50;99.90;;;;;;4996342;28;20127;-69
2023/01/02 05:14:15;;;;;;;32.50;12.32;;;11.50;99.90;;;;;;4980537;28;20485;-70
2023/01/02 05:16:40;;;;;;;28.50;12.20;;;11.50;99.90;;;;;;4994951;28;20120;-68
2023/01/02 05:19:06;;;;;;;30.25;12.60;;;11.50;99.90;;;;;;4984179;28;20084;-68
2023/01/02 05:24:15;;;;;;;32.25;12.95;;;11.50;99.90;;;;;;4982967;28;21323;-69
2023/01/02 05:26:41;;;;;;;28.90;12.57;;;11.60;99.90;;;;;;4982044;28;20141;-71
2023/01/02 05:29:07;;;;;;;33.78;12.90;;;11.50;99.90;;;;;;4983163;28;20048;-73
2023/01/02 05:31:32;;;;;;;34.63;12.63;;;11.60;99.90;;;;;;4977610;28;20046;-67
2023/01/02 05:33:58;;;;;;;36.65;14.60;;;11.70;99.90;;;;;;4968258;28;20038;-69
2023/01/02 05:36:25;;;;;;;32.22;12.93;;;11.70;99.90;;;;;;4981513;28;20045;-70
2023/01/02 05:38:51;;;;;;;31.88;13.20;;;11.60;99.90;;;;;;4980202;28;20100;-69
2023/01/02 05:41:17;;;;;;;25.95;11.77;;;11.70;99.90;;;;;;4981187;28;20077;-73
2023/01/02 05:43:43;;;;;;;31.90;12.48;;;11.70;99.90;;;;;;4983165;28;20420;-68
2023/01/02 05:46:14;;;;;;;27.27;11.77;;;11.70;99.90;;;;;;4981146;28;20034;-69
2023/01/02 05:48:40;;;;;;;26.65;12.05;;;11.70;99.90;;;;;;4980526;28;20042;-70
2023/01/02 05:51:08;;;;;;;36.22;12.25;;;11.80;99.90;;;;;;4981726;28;20089;-69
2023/01/02 05:53:34;;;;;;;25.88;11.60;;;11.80;99.90;;;;;;4994493;28;20165;-68
2023/01/02 05:56:06;;;;;;;28.63;11.95;;;11.70;99.90;;;;;;4978032;28;21351;-72
2023/01/02 05:58:34;;;;;;;33.40;12.40;;;11.70;99.90;;;;;;4980255;28;20099;-69
2023/01/02 06:01:08;;;;;;;26.08;11.98;;;11.80;99.90;;;;;;4978272;28;20065;-69
2023/01/02 06:03:34;;;;;;;30.52;11.73;;;11.90;99.90;;;;;;4997799;28;20540;-69
2023/01/02 06:06:09;;;;;;;27.30;11.65;;;11.80;99.90;;;;;;4985392;28;20053;-72
2023/01/02 06:08:35;;;;;;;22.90;11.00;;;11.80;99.90;;;;;;4985377;28;20041;-68
2023/01/02 06:11:02;;;;;;;26.77;11.20;;;11.90;99.90;;;;;;4982911;28;20045;-67
2023/01/02 06:13:29;;;;;;;25.98;11.48;;;11.80;99.90;;;;;;4999003;28;20120;-68
2023/01/02 06:15:55;;;;;;;22.58;11.20;;;11.90;99.90;;;;;;4983249;28;20041;-69
2023/01/02 06:18:21;;;;;;;26.27;11.38;;;11.80;99.90;;;;;;4980901;28;20050;-70
2023/01/02 06:20:47;;;;;;;28.55;12.30;;;11.90;99.90;;;;;;4976102;28;20045;-67
2023/01/02 06:23:13;;;;;;;30.83;12.45;;;11.90;99.90;;;;;;4985867;28;20046;-70
2023/01/02 06:25:38;;;;;;;28.83;12.40;;;11.90;99.90;;;;;;5000145;28;20103;-72
2023/01/02 06:28:04;;;;;;;31.23;11.45;;;11.90;99.90;;;;;;4985590;28;20073;-70
2023/01/02 06:30:30;;;;;;;29.95;11.77;;;11.80;99.90;;;;;;4986548;28;20034;-70
2023/01/02 06:32:56;;;;;;;26.40;11.77;;;11.90;99.90;;;;;;4997224;28;20045;-68
2023/01/02 06:35:22;;;;;;;30.02;11.82;;;11.80;99.90;;;;;;4985888;28;20050;-70
2023/01/02 06:37:48;;;;;;;32.03;12.00;;;11.90;99.90;;;;;;4968977;28;20042;-72
2023/01/02 06:40:14;;;;;;;27.27;11.32;;;11.80;99.90;;;;;;4987462;28;20634;-70
2023/01/02 06:42:41;;;;;;;33.70;12.75;;;11.80;99.90;;;;;;4980470;28;20553;-69
2023/01/02 06:45:07;;;;;;;33.42;15.88;;;11.80;99.90;;;;;;4988195;28;20065;-72
2023/01/02 06:47:32;;;;;;;23.13;11.88;;;12.00;99.90;;;;;;4984077;28;20073;-71
2023/01/02 06:49:58;;;;;;;10.18;5.82;;;12.00;99.90;;;;;;4987866;28;20030;-71
2023/01/02 06:52:25;;;;;;;6.80;4.00;;;11.70;99.90;;;;;;4981580;28;20481;-68
2023/01/02 06:54:51;;;;;;;7.55;5.43;;;11.70;99.90;;;;;;4987678;28;20116;-70
2023/01/02 06:57:16;;;;;;;8.70;5.70;;;11.50;99.90;;;;;;4983167;28;20199;-72
2023/01/02 06:59:42;;;;;;;10.02;6.50;;;11.20;99.90;;;;;;4985182;28;20038;-71
2023/01/02 07:02:10;;;;;;;7.72;5.18;;;11.30;99.90;;;;;;4981347;28;20042;-74
2023/01/02 07:04:36;;;;;;;9.88;6.80;;;11.10;99.90;;;;;;4997331;28;20042;-70
2023/01/02 07:07:02;;;;;;;11.10;6.97;;;10.90;99.90;;;;;;4976477;28;20041;-70
2023/01/02 07:09:27;;;;;;;12.00;6.50;;;10.70;99.90;;;;;;4984502;28;20420;-66
2023/01/02 07:11:53;;;;;;;10.77;6.90;;;10.60;99.90;;;;;;4984144;28;20037;-69
2023/01/02 07:14:18;;;;;;;12.90;7.65;;;10.60;99.90;;;;;;4986874;28;20268;-69
2023/01/02 07:16:44;;;;;;;14.30;7.90;;;10.60;99.90;;;;;;5003861;28;20044;-70
2023/01/02 07:19:10;;;;;;;15.63;8.50;;;10.60;99.90;;;;;;4987350;28;20056;-73
2023/01/02 07:21:35;;;;;;;16.27;8.50;;;10.50;99.90;;;;;;4986180;28;20409;-70
2023/01/02 07:24:01;;;;;;;18.52;10.20;;;10.40;99.90;;;;;;4987168;28;20077;-71
2023/01/02 07:26:26;;;;;;;19.98;10.75;;;10.40;99.90;;;;;;4988884;28;20050;-69
2023/01/02 07:28:52;;;;;;;18.98;10.15;;;10.20;99.90;;;;;;4986124;28;20041;-73
2023/01/02 07:31:19;;;;;;;31.65;13.25;;;10.20;99.90;;;;;;4986859;28;20632;-70
2023/01/02 07:33:46;;;;;;;21.38;9.25;;;10.10;99.90;;;;;;5004049;28;20045;-71
2023/01/02 07:36:15;;;;;;;21.80;11.18;;;10.20;99.90;;;;;;5003409;28;20038;-69
2023/01/02 07:38:41;;;;;;;22.80;10.48;;;10.00;99.90;;;;;;4983604;28;20042;-68
2023/01/02 07:41:15;;;;;;;26.10;12.27;;;9.80;99.90;;;;;;5005145;28;20048;-69
2023/01/02 07:43:42;;;;;;;27.63;10.95;;;9.80;99.90;;;;;;4988779;28;20046;-68
2023/01/02 07:46:08;;;;;;;29.45;11.13;;;9.70;99.90;;;;;;4994287;28;20088;-72
2023/01/02 07:48:33;;;;;;;26.38;9.45;;;9.70;99.90;;;;;;4986910;28;20085;-69
2023/01/02 07:51:01;;;;;;;18.83;8.43;;;9.60;99.90;;;;;;4988505;28;20043;-67
2023/01/02 07:53:26;;;;;;;20.85;7.72;;;9.50;99.90;;;;;;4988128;28;20038;-75
2023/01/02 07:55:54;;;;;;;17.80;5.38;;;9.40;99.90;;;;;;4991711;28;20484;-71
2023/01/02 07:58:19;;;;;;;18.70;6.18;;;9.40;99.90;;;;;;4989979;28;20047;-68
2023/01/02 08:00:45;;;;;;;18.35;5.65;;;9.10;99.90;;;;;;4979755;28;20128;-70
2023/01/02 08:03:11;;;;;;;18.05;5.57;;;9.10;99.90;;;;;;4998566;28;20045;-68
2023/01/02 08:05:36;;;;;;;11.85;4.32;;;9.10;99.90;;;;;;4993633;28;20156;-74
2023/01/02 08:08:02;;;;;;;15.55;4.75;;;9.10;99.90;;;;;;4992821;28;20396;-71
2023/01/02 08:10:27;;;;;;;11.38;4.18;;;9.10;99.90;;;;;;4986822;28;20045;-70
2023/01/02 08:12:53;;;;;;;8.30;3.15;;;9.00;99.90;;;;;;4984634;28;20296;-70
2023/01/02 08:15:18;;;;;;;12.35;3.40;;;9.00;99.90;;;;;;4986177;28;20759;-70
2023/01/02 08:17:44;;;;;;;14.90;4.10;;;8.90;99.90;;;;;;4980530;28;20045;-73
2023/01/02 08:20:10;;;;;;;11.73;3.67;;;8.80;99.90;;;;;;4988129;28;20049;-70
2023/01/02 08:22:36;;;;;;;13.38;4.00;;;8.90;99.90;;;;;;4985813;28;20050;-68
2023/01/02 08:25:02;;;;;;;11.90;4.10;;;8.80;99.90;;;;;;4985247;28;20038;-71
2023/01/02 08:27:28;;;;;;;13.32;4.03;;;8.70;99.90;;;;;;4985655;28;20090;-72
2023/01/02 08:29:53;;;;;;;12.73;4.28;;;8.80;99.90;;;;;;4985920;28;20112;-71
2023/01/02 08:32:19;;;;;;;12.32;4.50;;;8.60;99.90;;;;;;4987554;28;20492;-70
2023/01/02 08:34:45;;;;;;;10.50;3.80;;;8.60;99.90;;;;;;4989913;28;20041;-72
2023/01/02 08:37:10;;;;;;;9.25;3.42;;;8.60;99.90;;;;;;4991058;28;20050;-69
2023/01/02 08:39:36;;;;;;;13.35;4.30;;;8.70;99.90;;;;;;4989077;28;20049;-69
2023/01/02 08:42:01;;;;;;;9.02;3.72;;;8.60;99.90;;;;;;4990140;28;20050;-70
2023/01/02 08:44:27;;;;;;;9.88;3.33;;;8.60;99.90;;;;;;5006638;28;20036;-69
2023/01/02 08:46:52;;;;;;;5.85;2.42;;;8.60;99.90;;;;;;4976600;28;22223;-69
2023/01/02 08:49:18;;;;;;;9.23;2.50;;;8.70;99.90;;;;;;4991569;28;20033;-69
2023/01/02 08:51:44;;;;;;;5.43;2.05;;;8.50;99.90;;;;;;4988938;28;20096;-69
2023/01/02 08:54:09;;;;;;;7.78;2.63;;;8.60;99.90;;;;;;4986084;28;20046;-69
2023/01/02 08:56:36;;;;;;;8.65;3.03;;;8.60;99.90;;;;;;4999339;28;20038;-75
2023/01/02 08:59:07;;;;;;;10.52;3.25;;;8.50;99.90;;;;;;4990180;28;20066;-69
2023/01/02 09:01:34;;;;;;;8.35;2.70;;;8.50;99.90;;;;;;4988212;28;20050;-68
2023/01/02 09:04:00;;;;;;;9.38;3.00;;;8.60;99.90;;;;;;5003256;28;20104;-72
2023/01/02 09:06:28;;;;;;;10.60;3.65;;;8.50;99.90;;;;;;4989608;28;20468;-69
2023/01/02 09:08:56;;;;;;;10.95;3.42;;;8.50;99.90;;;;;;5004269;28;20449;-69
2023/01/02 09:11:25;;;;;;;14.02;4.45;;;8.50;99.90;;;;;;4990014;28;20037;-69
2023/01/02 09:13:51;;;;;;;13.63;4.55;;;8.40;99.90;;;;;;5007397;28;20046;-70
2023/01/02 09:16:16;;;;;;;14.82;3.97;;;8.50;99.90;;;;;;4990979;28;20149;-69
2023/01/02 09:18:42;;;;;;;10.65;3.65;;;8.40;99.90;;;;;;4989121;28;20466;-72
2023/01/02 09:21:08;;;;;;;9.73;3.28;;;8.40;99.90;;;;;;4987707;28;20044;-72
2023/01/02 09:23:33;;;;;;;10.60;4.13;;;8.40;99.90;;;;;;4989409;28;20456;-69
2023/01/02 09:26:01;;;;;;;13.38;3.70;;;8.40;99.90;;;;;;4989260;28;20042;-70
2023/01/02 09:28:28;;;;;;;15.30;4.30;;;8.50;99.90;;;;;;4985959;28;20057;-69
2023/01/02 09:30:54;;;;;;;11.43;3.60;;;8.50;99.90;;;;;;4990895;28;20073;-70
2023/01/02 09:33:20;;;;;;;12.43;3.05;;;8.40;99.90;;;;;;4991129;28;20471;-69
2023/01/02 09:35:46;;;;;;;10.63;3.28;;;8.40;99.90;;;;;;5008947;28;20077;-70
2023/01/02 09:38:11;;;;;;;9.77;2.67;;;8.50;99.90;;;;;;4992487;28;20058;-71
2023/01/02 09:40:49;;;;;;;9.05;2.30;;;8.50;99.90;;;;;;4992457;28;20046;-68
2023/01/02 09:43:26;;;;;;;9.90;3.03;;;8.40;99.90;;;;;;4988872;28;20038;-73
2023/01/02 09:45:57;;;;;;;10.68;3.45;;;8.50;99.90;;;;;;4996644;28;20160;-67
2023/01/02 09:48:24;;;;;;;10.35;3.08;;;8.50;99.90;;;;;;4987311;28;20064;-69
2023/01/02 09:50:49;;;;;;;11.85;3.30;;;8.50;99.90;;;;;;4991654;28;20041;-71
2023/01/02 09:53:15;;;;;;;9.45;2.95;;;8.50;99.90;;;;;;5007919;28;20124;-69
2023/01/02 09:56:03;;;;;;;12.18;3.33;;;8.60;99.90;;;;;;5001534;28;20049;-69
2023/01/02 09:58:31;;;;;;;14.25;3.17;;;8.60;99.90;;;;;;4991494;28;20054;-69
2023/01/02 10:00:58;;;;;;;14.48;3.78;;;8.60;99.90;;;;;;4992153;28;20065;-74
2023/01/02 10:03:41;;;;;;;9.80;4.00;;;8.60;99.90;;;;;;4991086;28;20034;-70
2023/01/02 10:06:24;;;;;;;12.75;4.40;;;8.80;99.90;;;;;;4988501;28;20637;-70
2023/01/02 10:09:13;;;;;;;11.68;3.85;;;8.70;99.90;;;;;;4986006;28;20048;-73
2023/01/02 10:11:51;;;;;;;10.65;3.58;;;8.80;99.90;;;;;;4993186;28;20087;-69
2023/01/02 10:14:26;;;;;;;6.95;2.88;;;8.80;99.90;;;;;;4990111;28;20420;-71
2023/01/02 10:16:55;;;;;;;8.95;3.40;;;9.00;99.90;;;;;;4995053;28;20073;-71
2023/01/02 10:19:55;;;;;;;10.27;3.53;;;8.90;99.90;;;;;;4991800;28;20381;-70
2023/01/02 10:22:48;;;;;;;9.20;3.53;;;9.00;99.90;;;;;;4991564;28;20435;-72
2023/01/02 10:25:54;;;;;;;8.25;3.10;;;8.90;99.90;;;;;;4994945;28;20049;-72
2023/01/02 10:28:45;;;;;;;10.48;3.83;;;8.90;99.90;;;;;;4972950;28;20060;-70
2023/01/02 10:31:28;;;;;;;11.55;3.72;;;8.90;99.90;;;;;;5008797;28;20485;-70
2023/01/02 10:34:01;;;;;;;13.32;4.68;;;8.80;99.90;;;;;;4994111;28;20048;-70
2023/01/02 10:36:41;;;;;;;10.23;4.53;;;8.90;99.90;;;;;;4994890;28;20635;-69
2023/01/02 10:39:12;;;;;;;9.68;4.10;;;8.90;99.90;;;;;;4994369;28;20528;-72
2023/01/02 10:41:39;;;;;;;14.05;3.83;;;8.90;99.90;;;;;;4994206;28;20149;-72
2023/01/02 10:44:24;;;;;;;9.70;4.30;;;8.90;99.90;;;;;;4995888;28;20042;-71
2023/01/02 10:46:49;;;;;;;11.13;4.53;;;8.90;99.90;;;;;;5012734;28;20396;-69
2023/01/02 10:49:15;;;;;;;11.88;3.40;;;8.90;99.90;;;;;;4995080;28;20096;-69
2023/01/02 10:51:50;;;;;;;10.20;3.40;;;9.00;99.90;;;;;;4994314;28;20046;-67
2023/01/02 10:54:16;;;;;;;12.35;2.90;;;8.90;99.90;;;;;;4995285;28;20073;-66
2023/01/02 10:56:47;;;;;;;15.20;3.35;;;9.00;99.90;;;;;;4994135;28;20353;-72
2023/01/02 10:59:22;;;;;;;12.23;2.80;;;9.00;99.90;;;;;;4994340;28;20453;-70
2023/01/02 11:01:50;;;;;;;13.48;3.50;;;9.00;99.90;;;;;;5000100;28;20125;-68
2023/01/02 11:04:20;;;;;;;7.63;2.30;;;9.00;99.90;;;;;;5011167;28;20045;-70
2023/01/02 11:06:52;;;;;;;17.55;3.60;;;9.00;99.90;;;;;;4990490;28;20038;-69
2023/01/02 11:09:22;;;;;;;11.20;3.20;;;9.10;99.90;;;;;;4993212;28;20453;-69
2023/01/02 11:11:57;;;;;;;18.38;3.53;;;9.10;99.90;;;;;;5008762;28;20034;-71
2023/01/02 11:14:32;;;;;;;14.38;3.97;;;9.10;99.90;;;;;;4991232;28;20045;-68
2023/01/02 11:17:21;;;;;;;14.40;4.43;;;9.10;99.90;;;;;;5001726;28;20484;-68
2023/01/02 11:19:51;;;;;;;22.27;5.93;;;9.10;99.90;;;;;;4990217;28;20604;-69
2023/01/02 11:22:32;;;;;;;23.00;8.98;;;9.00;99.90;;;;;;4994649;28;20054;-67
2023/01/02 11:25:01;;;;;;;27.25;9.15;;;9.00;99.90;;;;;;4987375;28;20045;-68
2023/01/02 11:27:36;;;;;;;21.83;10.05;;;9.00;99.90;;;;;;4964780;28;20485;-68
2023/01/02 11:30:04;;;;;;;25.17;9.93;;;9.10;99.90;;;;;;4989474;28;20034;-69
2023/01/02 11:32:40;;;;;;;21.45;9.30;;;9.00;99.90;;;;;;5009038;28;20094;-67
2023/01/02 11:35:35;;;;;;;21.15;8.15;;;9.10;99.90;;;;;;5009706;28;20073;-68
2023/01/02 11:38:02;;;;;;;18.20;6.32;;;8.90;99.90;;;;;;4992960;28;20129;-68
2023/01/02 11:40:31;;;;;;;16.70;5.55;;;9.00;99.90;;;;;;4978594;28;20057;-69
2023/01/02 11:45:50;;;;;;;21.02;4.18;;;9.00;99.90;;;;;;4994981;28;20507;-70
2023/01/02 11:48:20;;;;;;;14.77;3.95;;;8.90;99.90;;;;;;4993416;28;20038;-69
2023/01/02 11:50:48;;;;;;;18.13;4.05;;;8.90;99.90;;;;;;5011823;28;20049;-69
2023/01/02 11:53:26;;;;;;;15.52;3.67;;;9.00;99.90;;;;;;4993451;28;20461;-69
2023/01/02 11:56:13;;;;;;;10.77;3.10;;;9.00;99.90;;;;;;4994351;28;20074;-69
2023/01/02 11:58:49;;;;;;;15.65;3.22;;;9.10;99.90;;;;;;4993825;28;20054;-69
2023/01/02 12:01:34;;;;;;;18.88;3.78;;;9.10;99.90;;;;;;4987309;28;20053;-71
2023/01/02 12:03:59;;;;;;;15.23;3.65;;;9.20;99.90;;;;;;5000065;28;20056;-71
2023/01/02 12:06:34;;;;;;;14.38;3.17;;;9.20;99.90;;;;;;4993419;28;20038;-68
2023/01/02 12:09:13;;;;;;;15.38;3.00;;;9.20;99.90;;;;;;4993863;28;20136;-70
2023/01/02 12:12:20;;;;;;;12.68;3.03;;;9.20;99.90;;;;;;4989688;28;20046;-69
2023/01/02 12:15:07;;;;;;;15.95;3.50;;;9.20;99.90;;;;;;4991019;28;20046;-68
2023/01/02 12:17:39;;;;;;;19.08;3.65;;;9.10;99.90;;;;;;5000102;28;20041;-67
2023/01/02 12:20:12;;;;;;;13.35;3.50;;;9.20;99.90;;;;;;4989932;28;20042;-66
2023/01/02 12:22:47;;;;;;;14.40;3.30;;;9.10;99.90;;;;;;4977059;28;20412;-73
2023/01/02 12:25:46;;;;;;;20.20;4.38;;;9.20;99.90;;;;;;4994723;28;20113;-69
2023/01/02 12:28:27;;;;;;;19.55;3.92;;;9.20;99.90;;;;;;4990130;28;20050;-68
2023/01/02 12:31:17;;;;;;;14.98;3.65;;;9.20;99.90;;;;;;4995163;28;20034;-69
2023/01/02 12:33:54;;;;;;;15.38;3.38;;;9.20;99.90;;;;;;4989926;28;20128;-70
2023/01/02 12:36:38;;;;;;;14.98;3.65;;;9.20;99.90;;;;;;4992338;28;20081;-65
2023/01/02 12:39:34;;;;;;;18.75;3.90;;;9.20;99.90;;;;;;4994583;28;20049;-70
2023/01/02 12:42:08;;;;;;;17.35;4.05;;;9.30;99.90;;;;;;4992271;28;20049;-70
2023/01/02 12:44:51;;;;;;;21.52;4.00;;;9.30;99.90;;;;;;5000680;28;20041;-68
2023/01/02 12:47:53;;;;;;;25.13;4.05;;;9.30;99.90;;;;;;4990645;28;20414;-70
2023/01/02 12:50:44;;;;;;;18.42;3.50;;;9.30;99.90;;;;;;4988017;28;21878;-66
2023/01/02 12:53:39;;;;;;;20.75;3.55;;;9.40;99.90;;;;;;4993623;28;20062;-72
2023/01/02 12:56:37;;;;;;;23.63;3.70;;;9.40;99.90;;;;;;4985827;28;20565;-71
2023/01/02 12:59:47;;;;;;;16.60;3.67;;;9.40;99.90;;;;;;4995799;28;20045;-71
2023/01/02 13:02:33;;;;;;;14.50;3.30;;;9.40;99.90;;;;;;4979163;28;20461;-72